sensor_id;sensor_type;location;lat;lon;timestamp;pressure;altitude;pressure_sealevel;temperature;humidity
17781;BME280;8498;52.516;13.790;2024-01-15T00:03:07;98845.22;;;3.48;100.00
17781;BME280;8498;52.516;13.790;2024-01-15T00:08:29;98843.31;;;3.50;100.00
17781;BME280;8498;52.516;13.790;2024-01-15T00:13:52;98824.00;;;3.25;100.00
17781;BME280;8498;52.516;13.790;2024-01-15T00:19:14;98817.38;;;3.32;100.00
17781;BME280;8498;52.516;13.790;2024-01-15T00:24:37;98809.09;;;3.26;100.00
17781;BME280;8498;52.516;13.790;2024-01-15T00:29:59;98797.09;;;3.22;100.00
17781;BME280;8498;52.516;13.790;2024-01-15T00:35:22;98786.41;;;3.25;100.00
17781;BME280;8498;52.516;13.790;2024-01-15T00:40:44;98775.06;;;3.12;100.00
17781;BME280;8498;52.516;13.790;2024-01-15T00:46:06;98757.88;;;3.08;100.00
17781;BME280;8498;52.516;13.790;2024-01-15T00:51:29;98762.09;;;3.10;100.00
17781;BME280;8498;52.516;13.790;2024-01-15T00:56:51;98745.28;;;3.13;100.00
17781;BME280;8498;52.516;13.790;2024-01-15T01:02:13;98739.41;;;2.97;100.00
17781;BME280;8498;52.516;13.790;2024-01-15T01:07:36;98727.78;;;3.01;100.00
17781;BME280;8498;52.516;13.790;2024-01-15T01:12:58;98726.28;;;2.97;100.00
17781;BME280;8498;52.516;13.790;2024-01-15T01:18:21;98728.91;;;2.97;100.00
17781;BME280;8498;52.516;13.790;2024-01-15T01:23:43;98735.72;;;2.86;100.00
17781;BME280;8498;52.516;13.790;2024-01-15T01:29:06;98725.53;;;2.82;100.00
17781;BME280;8498;52.516;13.790;2024-01-15T01:34:28;98722.63;;;2.86;100.00
17781;BME280;8498;52.516;13.790;2024-01-15T01:39:55;98747.78;;;2.76;100.00
17781;BME280;8498;52.516;13.790;2024-01-15T01:45:17;98743.66;;;2.72;100.00
17781;BME280;8498;52.516;13.790;2024-01-15T01:50:40;98747.97;;;2.73;100.00
17781;BME280;8498;52.516;13.790;2024-01-15T01:56:03;98736.13;;;2.80;100.00
17781;BME280;8498;52.516;13.790;2024-01-15T02:01:26;98718.63;;;2.81;100.00
17781;BME280;8498;52.516;13.790;2024-01-15T02:06:48;98717.78;;;2.80;100.00
17781;BME280;8498;52.516;13.790;2024-01-15T02:12:11;98721.88;;;2.84;100.00
17781;BME280;8498;52.516;13.790;2024-01-15T02:17:34;98724.47;;;2.72;100.00
17781;BME280;8498;52.516;13.790;2024-01-15T02:23:10;98715.97;;;2.55;100.00
17781;BME280;8498;52.516;13.790;2024-01-15T02:28:33;98710.03;;;2.66;100.00
17781;BME280;8498;52.516;13.790;2024-01-15T02:33:56;98711.59;;;2.69;100.00
17781;BME280;8498;52.516;13.790;2024-01-15T02:39:18;98715.06;;;2.69;100.00
17781;BME280;8498;52.516;13.790;2024-01-15T02:44:41;98719.69;;;2.78;100.00
17781;BME280;8498;52.516;13.790;2024-01-15T02:50:04;98711.06;;;2.76;100.00
17781;BME280;8498;52.516;13.790;2024-01-15T02:55:26;98700.03;;;2.71;100.00
17781;BME280;8498;52.516;13.790;2024-01-15T03:00:51;98697.66;;;2.68;100.00
17781;BME280;8498;52.516;13.790;2024-01-15T03:06:14;98694.28;;;2.66;100.00
17781;BME280;8498;52.516;13.790;2024-01-15T03:11:39;98698.06;;;2.75;100.00
17781;BME280;8498;52.516;13.790;2024-01-15T03:17:02;98672.50;;;2.78;100.00
17781;BME280;8498;52.516;13.790;2024-01-15T03:22:24;98686.63;;;2.76;100.00
17781;BME280;8498;52.516;13.790;2024-01-15T03:27:46;98673.53;;;2.88;100.00
17781;BME280;8498;52.516;13.790;2024-01-15T03:33:09;98665.56;;;2.77;100.00
17781;BME280;8498;52.516;13.790;2024-01-15T03:38:31;98672.06;;;2.84;100.00
17781;BME280;8498;52.516;13.790;2024-01-15T03:43:53;98671.66;;;2.78;100.00
17781;BME280;8498;52.516;13.790;2024-01-15T03:49:16;98644.25;;;2.94;100.00
17781;BME280;8498;52.516;13.790;2024-01-15T03:54:38;98641.44;;;2.85;100.00
17781;BME280;8498;52.516;13.790;2024-01-15T04:00:01;98636.09;;;2.86;100.00
17781;BME280;8498;52.516;13.790;2024-01-15T04:05:26;98627.59;;;2.83;100.00
17781;BME280;8498;52.516;13.790;2024-01-15T04:10:48;98622.97;;;2.86;100.00
17781;BME280;8498;52.516;13.790;2024-01-15T04:16:11;98616.06;;;2.85;100.00
17781;BME280;8498;52.516;13.790;2024-01-15T04:21:33;98614.06;;;2.89;100.00
17781;BME280;8498;52.516;13.790;2024-01-15T04:26:56;98619.50;;;2.99;99.78
17781;BME280;8498;52.516;13.790;2024-01-15T04:32:18;98609.63;;;3.02;99.69
17781;BME280;8498;52.516;13.790;2024-01-15T04:37:42;98609.97;;;2.98;99.46
17781;BME280;8498;52.516;13.790;2024-01-15T04:43:05;98585.81;;;3.05;98.84
17781;BME280;8498;52.516;13.790;2024-01-15T04:48:27;98589.59;;;3.01;97.93
17781;BME280;8498;52.516;13.790;2024-01-15T04:53:50;98587.84;;;2.89;98.12
17781;BME280;8498;52.516;13.790;2024-01-15T04:59:13;98606.91;;;3.04;97.62
17781;BME280;8498;52.516;13.790;2024-01-15T05:04:36;98597.78;;;3.09;95.94
17781;BME280;8498;52.516;13.790;2024-01-15T05:09:59;98579.06;;;3.14;95.33
17781;BME280;8498;52.516;13.790;2024-01-15T05:15:22;98586.53;;;3.20;95.05
17781;BME280;8498;52.516;13.790;2024-01-15T05:20:44;98571.72;;;3.19;92.81
17781;BME280;8498;52.516;13.790;2024-01-15T05:26:07;98575.69;;;3.24;92.63
17781;BME280;8498;52.516;13.790;2024-01-15T05:31:31;98575.09;;;3.21;92.91
17781;BME280;8498;52.516;13.790;2024-01-15T05:36:55;98565.81;;;3.28;92.93
17781;BME280;8498;52.516;13.790;2024-01-15T05:42:18;98572.66;;;3.18;93.49
17781;BME280;8498;52.516;13.790;2024-01-15T05:47:40;98566.72;;;3.03;98.78
17781;BME280;8498;52.516;13.790;2024-01-15T05:53:06;98547.19;;;3.07;98.41
17781;BME280;8498;52.516;13.790;2024-01-15T05:58:28;98565.66;;;3.06;98.03
17781;BME280;8498;52.516;13.790;2024-01-15T06:03:51;98564.81;;;3.18;96.55
17781;BME280;8498;52.516;13.790;2024-01-15T06:09:13;98563.13;;;3.17;95.75
17781;BME280;8498;52.516;13.790;2024-01-15T06:14:36;98561.22;;;3.19;97.18
17781;BME280;8498;52.516;13.790;2024-01-15T06:19:58;98573.81;;;3.14;98.24
17781;BME280;8498;52.516;13.790;2024-01-15T06:25:21;98577.56;;;2.99;100.00
17781;BME280;8498;52.516;13.790;2024-01-15T06:30:43;98574.47;;;3.05;100.00
17781;BME280;8498;52.516;13.790;2024-01-15T06:36:06;98563.78;;;3.08;100.00
17781;BME280;8498;52.516;13.790;2024-01-15T06:41:29;98571.63;;;3.20;97.38
17781;BME280;8498;52.516;13.790;2024-01-15T06:46:54;98571.47;;;3.22;96.48
17781;BME280;8498;52.516;13.790;2024-01-15T06:52:19;98566.75;;;3.27;95.11
17781;BME280;8498;52.516;13.790;2024-01-15T06:57:41;98561.31;;;3.30;95.91
17781;BME280;8498;52.516;13.790;2024-01-15T07:03:05;98574.41;;;3.30;95.84
17781;BME280;8498;52.516;13.790;2024-01-15T07:08:27;98574.63;;;3.27;97.74
17781;BME280;8498;52.516;13.790;2024-01-15T07:13:49;98565.94;;;3.14;98.69
17781;BME280;8498;52.516;13.790;2024-01-15T07:19:12;98577.38;;;3.13;99.54
17781;BME280;8498;52.516;13.790;2024-01-15T07:24:34;98592.59;;;3.20;100.00
17781;BME280;8498;52.516;13.790;2024-01-15T07:29:57;98604.66;;;3.23;100.00
17781;BME280;8498;52.516;13.790;2024-01-15T07:35:23;98625.16;;;2.92;100.00
17781;BME280;8498;52.516;13.790;2024-01-15T07:40:45;98611.34;;;2.90;100.00
17781;BME280;8498;52.516;13.790;2024-01-15T07:46:11;98629.06;;;3.00;100.00
17781;BME280;8498;52.516;13.790;2024-01-15T07:51:34;98631.59;;;2.88;100.00
17781;BME280;8498;52.516;13.790;2024-01-15T07:57:00;98626.44;;;2.87;100.00
17781;BME280;8498;52.516;13.790;2024-01-15T08:02:22;98643.94;;;2.99;100.00
17781;BME280;8498;52.516;13.790;2024-01-15T08:07:45;98624.94;;;3.08;100.00
17781;BME280;8498;52.516;13.790;2024-01-15T08:13:07;98622.03;;;3.37;99.94
17781;BME280;8498;52.516;13.790;2024-01-15T08:18:31;98629.81;;;3.38;97.21
17781;BME280;8498;52.516;13.790;2024-01-15T08:23:54;98633.09;;;3.29;96.99
17781;BME280;8498;52.516;13.790;2024-01-15T08:29:16;98625.72;;;3.34;97.65
17781;BME280;8498;52.516;13.790;2024-01-15T08:34:41;98627.19;;;3.38;96.22
17781;BME280;8498;52.516;13.790;2024-01-15T08:40:05;98640.31;;;3.38;94.88
17781;BME280;8498;52.516;13.790;2024-01-15T08:45:27;98640.94;;;3.42;94.07
17781;BME280;8498;52.516;13.790;2024-01-15T08:50:53;98648.97;;;3.51;92.71
17781;BME280;8498;52.516;13.790;2024-01-15T08:56:16;98633.72;;;3.56;92.33
17781;BME280;8498;52.516;13.790;2024-01-15T09:01:39;98655.94;;;3.63;90.44
17781;BME280;8498;52.516;13.790;2024-01-15T09:07:02;98660.91;;;3.55;91.42
17781;BME280;8498;52.516;13.790;2024-01-15T09:12:27;98665.97;;;3.58;91.89
17781;BME280;8498;52.516;13.790;2024-01-15T09:17:50;98664.72;;;3.51;93.44
17781;BME280;8498;52.516;13.790;2024-01-15T09:23:12;98675.34;;;3.50;94.22
17781;BME280;8498;52.516;13.790;2024-01-15T09:28:35;98663.66;;;3.54;93.76
17781;BME280;8498;52.516;13.790;2024-01-15T09:33:57;98681.91;;;3.55;91.96
17781;BME280;8498;52.516;13.790;2024-01-15T09:39:22;98680.97;;;3.56;93.17
17781;BME280;8498;52.516;13.790;2024-01-15T09:44:46;98678.03;;;3.61;93.56
17781;BME280;8498;52.516;13.790;2024-01-15T09:50:09;98687.53;;;3.75;92.24
17781;BME280;8498;52.516;13.790;2024-01-15T09:55:32;98689.31;;;3.74;91.23
17781;BME280;8498;52.516;13.790;2024-01-15T10:01:00;98669.94;;;3.88;91.54
17781;BME280;8498;52.516;13.790;2024-01-15T10:06:29;98668.91;;;3.90;90.00
17781;BME280;8498;52.516;13.790;2024-01-15T10:11:53;98663.59;;;4.03;88.87
17781;BME280;8498;52.516;13.790;2024-01-15T10:17:15;98658.34;;;4.03;87.69
17781;BME280;8498;52.516;13.790;2024-01-15T10:22:42;98659.53;;;4.10;88.69
17781;BME280;8498;52.516;13.790;2024-01-15T10:28:06;98653.97;;;4.15;88.57
17781;BME280;8498;52.516;13.790;2024-01-15T10:33:28;98646.94;;;4.15;89.33
17781;BME280;8498;52.516;13.790;2024-01-15T10:38:51;98647.56;;;4.06;89.50
17781;BME280;8498;52.516;13.790;2024-01-15T10:44:13;98649.56;;;4.15;89.45
17781;BME280;8498;52.516;13.790;2024-01-15T10:49:36;98645.47;;;4.11;88.83
17781;BME280;8498;52.516;13.790;2024-01-15T10:54:59;98640.72;;;3.92;87.97
17781;BME280;8498;52.516;13.790;2024-01-15T11:00:30;98657.50;;;4.02;87.96
17781;BME280;8498;52.516;13.790;2024-01-15T11:05:53;98667.53;;;4.09;87.75
17781;BME280;8498;52.516;13.790;2024-01-15T11:11:21;98653.28;;;4.24;87.51
17781;BME280;8498;52.516;13.790;2024-01-15T11:16:54;98654.44;;;4.20;86.65
17781;BME280;8498;52.516;13.790;2024-01-15T11:27:55;98647.88;;;4.14;86.34
17781;BME280;8498;52.516;13.790;2024-01-15T11:33:33;98651.72;;;4.21;85.01
17781;BME280;8498;52.516;13.790;2024-01-15T11:38:57;98650.81;;;4.33;84.67
17781;BME280;8498;52.516;13.790;2024-01-15T11:44:21;98668.16;;;4.47;84.25
17781;BME280;8498;52.516;13.790;2024-01-15T11:49:58;98662.03;;;4.35;83.58
17781;BME280;8498;52.516;13.790;2024-01-15T11:55:27;98666.25;;;4.49;83.33
17781;BME280;8498;52.516;13.790;2024-01-15T12:00:52;98664.06;;;4.32;84.16
17781;BME280;8498;52.516;13.790;2024-01-15T12:06:18;98663.69;;;4.25;84.91
17781;BME280;8498;52.516;13.790;2024-01-15T12:11:46;98668.94;;;4.25;85.42
17781;BME280;8498;52.516;13.790;2024-01-15T12:17:13;98696.78;;;4.04;91.53
17781;BME280;8498;52.516;13.790;2024-01-15T12:22:35;98711.16;;;3.75;98.61
17781;BME280;8498;52.516;13.790;2024-01-15T12:28:18;98708.44;;;3.76;100.00
17781;BME280;8498;52.516;13.790;2024-01-15T12:33:40;98701.75;;;3.72;100.00
17781;BME280;8498;52.516;13.790;2024-01-15T12:39:03;98702.44;;;3.74;100.00
17781;BME280;8498;52.516;13.790;2024-01-15T12:44:25;98695.13;;;3.66;99.58
17781;BME280;8498;52.516;13.790;2024-01-15T12:49:48;98690.59;;;3.68;100.00
17781;BME280;8498;52.516;13.790;2024-01-15T12:55:26;98703.66;;;3.57;100.00
17781;BME280;8498;52.516;13.790;2024-01-15T13:00:49;98707.03;;;3.47;100.00
17781;BME280;8498;52.516;13.790;2024-01-15T13:06:12;98720.16;;;3.47;100.00
17781;BME280;8498;52.516;13.790;2024-01-15T13:11:35;98721.34;;;3.30;100.00
17781;BME280;8498;52.516;13.790;2024-01-15T13:17:01;98719.47;;;3.32;100.00
17781;BME280;8498;52.516;13.790;2024-01-15T13:22:23;98728.22;;;3.56;100.00
17781;BME280;8498;52.516;13.790;2024-01-15T13:27:51;98723.41;;;3.50;99.71
17781;BME280;8498;52.516;13.790;2024-01-15T13:33:14;98730.25;;;3.53;96.49
17781;BME280;8498;52.516;13.790;2024-01-15T13:38:37;98723.13;;;3.79;95.52
17781;BME280;8498;52.516;13.790;2024-01-15T13:44:00;98739.00;;;3.77;95.35
17781;BME280;8498;52.516;13.790;2024-01-15T13:49:22;98752.13;;;3.77;95.59
17781;BME280;8498;52.516;13.790;2024-01-15T13:54:46;98760.09;;;3.76;94.89
17781;BME280;8498;52.516;13.790;2024-01-15T14:00:13;98756.78;;;3.74;94.56
17781;BME280;8498;52.516;13.790;2024-01-15T14:05:40;98767.56;;;3.82;93.60
17781;BME280;8498;52.516;13.790;2024-01-15T14:11:03;98775.88;;;3.76;93.90
17781;BME280;8498;52.516;13.790;2024-01-15T14:16:26;98785.22;;;3.80;94.47
17781;BME280;8498;52.516;13.790;2024-01-15T14:21:48;98790.19;;;3.72;94.38
17781;BME280;8498;52.516;13.790;2024-01-15T14:27:11;98808.66;;;3.57;94.41
17781;BME280;8498;52.516;13.790;2024-01-15T14:32:34;98813.38;;;3.78;94.09
17781;BME280;8498;52.516;13.790;2024-01-15T14:37:56;98817.78;;;3.64;94.47
17781;BME280;8498;52.516;13.790;2024-01-15T14:43:20;98822.53;;;3.59;93.51
17781;BME280;8498;52.516;13.790;2024-01-15T14:48:45;98830.50;;;3.71;93.27
17781;BME280;8498;52.516;13.790;2024-01-15T14:54:08;98846.91;;;3.61;93.00
17781;BME280;8498;52.516;13.790;2024-01-15T14:59:31;98857.69;;;3.57;91.51
17781;BME280;8498;52.516;13.790;2024-01-15T15:04:54;98861.91;;;3.59;90.55
17781;BME280;8498;52.516;13.790;2024-01-15T15:10:20;98864.19;;;3.64;90.95
17781;BME280;8498;52.516;13.790;2024-01-15T15:15:42;98876.19;;;3.55;90.24
17781;BME280;8498;52.516;13.790;2024-01-15T15:21:06;98872.09;;;3.51;90.36
17781;BME280;8498;52.516;13.790;2024-01-15T15:26:30;98895.81;;;3.50;90.25
17781;BME280;8498;52.516;13.790;2024-01-15T15:31:53;98903.59;;;3.77;93.64
17781;BME280;8498;52.516;13.790;2024-01-15T15:37:15;98913.66;;;4.08;88.79
17781;BME280;8498;52.516;13.790;2024-01-15T15:42:39;98916.28;;;3.57;88.38
17781;BME280;8498;52.516;13.790;2024-01-15T15:48:01;98934.44;;;3.48;88.78
17781;BME280;8498;52.516;13.790;2024-01-15T15:53:24;98946.94;;;3.44;89.07
17781;BME280;8498;52.516;13.790;2024-01-15T15:58:47;98952.91;;;3.46;89.28
17781;BME280;8498;52.516;13.790;2024-01-15T16:04:09;98949.41;;;3.20;90.15
17781;BME280;8498;52.516;13.790;2024-01-15T16:09:32;98945.38;;;3.15;91.11
17781;BME280;8498;52.516;13.790;2024-01-15T16:14:55;98970.09;;;3.25;90.87
17781;BME280;8498;52.516;13.790;2024-01-15T16:20:18;98969.56;;;3.20;90.79
17781;BME280;8498;52.516;13.790;2024-01-15T16:26:00;98977.44;;;3.20;91.13
17781;BME280;8498;52.516;13.790;2024-01-15T16:31:23;98985.69;;;3.14;91.31
17781;BME280;8498;52.516;13.790;2024-01-15T16:36:46;98991.69;;;3.16;91.49
17781;BME280;8498;52.516;13.790;2024-01-15T16:42:08;98986.63;;;3.13;91.47
17781;BME280;8498;52.516;13.790;2024-01-15T16:47:31;98997.44;;;2.94;92.43
17781;BME280;8498;52.516;13.790;2024-01-15T16:52:54;99013.00;;;2.97;92.79
17781;BME280;8498;52.516;13.790;2024-01-15T16:58:16;99025.19;;;2.98;93.69
17781;BME280;8498;52.516;13.790;2024-01-15T17:03:40;99029.41;;;3.01;93.58
17781;BME280;8498;52.516;13.790;2024-01-15T17:09:03;99033.22;;;3.09;93.70
17781;BME280;8498;52.516;13.790;2024-01-15T17:14:25;99041.44;;;3.03;94.48
17781;BME280;8498;52.516;13.790;2024-01-15T17:19:48;99054.97;;;2.97;95.39
17781;BME280;8498;52.516;13.790;2024-01-15T17:25:11;99057.59;;;2.83;96.73
17781;BME280;8498;52.516;13.790;2024-01-15T17:30:34;99063.50;;;2.72;97.91
17781;BME280;8498;52.516;13.790;2024-01-15T17:35:57;99072.25;;;2.58;98.10
17781;BME280;8498;52.516;13.790;2024-01-15T17:41:19;99071.56;;;2.55;97.90
17781;BME280;8498;52.516;13.790;2024-01-15T17:46:42;99074.75;;;2.46;96.67
17781;BME280;8498;52.516;13.790;2024-01-15T17:52:08;99079.06;;;2.47;95.92
17781;BME280;8498;52.516;13.790;2024-01-15T17:57:30;99087.50;;;2.38;94.54
17781;BME280;8498;52.516;13.790;2024-01-15T18:02:53;99089.88;;;2.12;91.00
17781;BME280;8498;52.516;13.790;2024-01-15T18:08:20;99094.75;;;2.33;89.62
17781;BME280;8498;52.516;13.790;2024-01-15T18:13:42;99094.09;;;2.29;87.16
17781;BME280;8498;52.516;13.790;2024-01-15T18:19:04;99101.41;;;2.24;85.50
17781;BME280;8498;52.516;13.790;2024-01-15T18:24:27;99111.19;;;2.20;84.50
17781;BME280;8498;52.516;13.790;2024-01-15T18:29:49;99116.09;;;2.27;83.38
17781;BME280;8498;52.516;13.790;2024-01-15T18:35:12;99119.28;;;2.32;83.02
17781;BME280;8498;52.516;13.790;2024-01-15T18:40:34;99133.84;;;2.21;81.80
17781;BME280;8498;52.516;13.790;2024-01-15T18:46:03;99142.00;;;2.17;81.81
17781;BME280;8498;52.516;13.790;2024-01-15T18:51:27;99156.09;;;2.14;81.24
17781;BME280;8498;52.516;13.790;2024-01-15T18:56:49;99165.81;;;2.12;81.07
17781;BME280;8498;52.516;13.790;2024-01-15T19:02:12;99172.75;;;2.13;81.46
17781;BME280;8498;52.516;13.790;2024-01-15T19:07:34;99168.81;;;2.06;81.41
17781;BME280;8498;52.516;13.790;2024-01-15T19:12:58;99180.06;;;1.93;81.70
17781;BME280;8498;52.516;13.790;2024-01-15T19:18:20;99195.28;;;1.86;81.59
17781;BME280;8498;52.516;13.790;2024-01-15T19:23:43;99210.66;;;1.76;80.90
17781;BME280;8498;52.516;13.790;2024-01-15T19:29:05;99217.06;;;1.87;80.65
17781;BME280;8498;52.516;13.790;2024-01-15T19:34:30;99215.50;;;1.98;80.17
17781;BME280;8498;52.516;13.790;2024-01-15T19:39:52;99227.44;;;1.88;79.59
17781;BME280;8498;52.516;13.790;2024-01-15T19:45:15;99237.81;;;1.90;79.37
17781;BME280;8498;52.516;13.790;2024-01-15T19:50:37;99246.13;;;1.82;78.54
17781;BME280;8498;52.516;13.790;2024-01-15T19:56:00;99257.41;;;1.98;79.02
17781;BME280;8498;52.516;13.790;2024-01-15T20:01:23;99275.69;;;1.84;78.08
17781;BME280;8498;52.516;13.790;2024-01-15T20:06:48;99273.06;;;1.84;78.54
17781;BME280;8498;52.516;13.790;2024-01-15T20:12:10;99289.69;;;1.83;78.52
17781;BME280;8498;52.516;13.790;2024-01-15T20:17:32;99302.03;;;1.81;78.48
17781;BME280;8498;52.516;13.790;2024-01-15T20:22:55;99316.38;;;1.90;78.68
17781;BME280;8498;52.516;13.790;2024-01-15T20:28:18;99329.56;;;1.88;78.74
17781;BME280;8498;52.516;13.790;2024-01-15T20:33:40;99330.25;;;1.76;78.38
17781;BME280;8498;52.516;13.790;2024-01-15T20:39:03;99335.22;;;1.80;78.72
17781;BME280;8498;52.516;13.790;2024-01-15T20:44:26;99343.31;;;1.76;78.35
17781;BME280;8498;52.516;13.790;2024-01-15T20:49:48;99347.22;;;1.84;78.04
17781;BME280;8498;52.516;13.790;2024-01-15T20:55:10;99359.78;;;1.78;78.17
17781;BME280;8498;52.516;13.790;2024-01-15T21:00:33;99359.78;;;1.78;78.04
17781;BME280;8498;52.516;13.790;2024-01-15T21:05:57;99384.47;;;1.57;78.17
17781;BME280;8498;52.516;13.790;2024-01-15T21:11:20;99385.94;;;1.78;78.52
17781;BME280;8498;52.516;13.790;2024-01-15T21:16:42;99387.72;;;1.77;78.93
17781;BME280;8498;52.516;13.790;2024-01-15T21:22:04;99397.34;;;1.77;78.61
17781;BME280;8498;52.516;13.790;2024-01-15T21:27:27;99394.56;;;1.80;78.65
17781;BME280;8498;52.516;13.790;2024-01-15T21:32:50;99406.47;;;1.70;76.03
17781;BME280;8498;52.516;13.790;2024-01-15T21:38:12;99413.69;;;1.82;76.60
17781;BME280;8498;52.516;13.790;2024-01-15T21:43:35;99426.31;;;1.74;76.73
17781;BME280;8498;52.516;13.790;2024-01-15T21:48:58;99429.78;;;1.74;76.82
17781;BME280;8498;52.516;13.790;2024-01-15T21:54:21;99439.56;;;1.71;76.08
17781;BME280;8498;52.516;13.790;2024-01-15T21:59:43;99452.28;;;1.61;76.38
17781;BME280;8498;52.516;13.790;2024-01-15T22:05:08;99456.34;;;1.67;76.54
17781;BME280;8498;52.516;13.790;2024-01-15T22:10:31;99455.66;;;1.63;76.24
17781;BME280;8498;52.516;13.790;2024-01-15T22:15:53;99451.09;;;1.67;76.02
17781;BME280;8498;52.516;13.790;2024-01-15T22:21:16;99454.50;;;1.69;76.18
17781;BME280;8498;52.516;13.790;2024-01-15T22:26:39;99469.53;;;1.65;75.59
17781;BME280;8498;52.516;13.790;2024-01-15T22:32:02;99481.59;;;1.68;76.52
17781;BME280;8498;52.516;13.790;2024-01-15T22:37:25;99485.06;;;1.68;75.83
17781;BME280;8498;52.516;13.790;2024-01-15T22:42:47;99471.59;;;1.76;77.14
17781;BME280;8498;52.516;13.790;2024-01-15T22:48:10;99477.84;;;1.73;76.67
17781;BME280;8498;52.516;13.790;2024-01-15T22:53:32;99475.63;;;1.66;76.05
17781;BME280;8498;52.516;13.790;2024-01-15T22:58:55;99472.38;;;1.61;76.66
17781;BME280;8498;52.516;13.790;2024-01-15T23:04:17;99470.53;;;1.63;76.92
17781;BME280;8498;52.516;13.790;2024-01-15T23:09:40;99483.16;;;1.55;76.13
17781;BME280;8498;52.516;13.790;2024-01-15T23:15:03;99481.47;;;1.54;76.66
17781;BME280;8498;52.516;13.790;2024-01-15T23:20:26;99494.38;;;1.57;77.79
17781;BME280;8498;52.516;13.790;2024-01-15T23:25:48;99484.53;;;1.62;79.27
17781;BME280;8498;52.516;13.790;2024-01-15T23:31:11;99500.09;;;1.65;78.33
17781;BME280;8498;52.516;13.790;2024-01-15T23:36:33;99504.31;;;1.67;78.96
17781;BME280;8498;52.516;13.790;2024-01-15T23:41:55;99497.00;;;1.57;80.44
17781;BME280;8498;52.516;13.790;2024-01-15T23:47:18;99494.47;;;1.55;80.66
17781;BME280;8498;52.516;13.790;2024-01-15T23:52:40;99491.75;;;1.57;82.35
17781;BME280;8498;52.516;13.790;2024-01-15T23:58:03;99492.25;;;1.65;81.80
